Time;durP1;ratioP1;P1;durP2;ratioP2;P2;SDS_P1;SDS_P2;PMS_P1;PMS_P2;Temp;Humidity;BMP_temperature;BMP_pressure;BME280_temperature;BME280_humidity;BME280_pressure;Samples;Min_cycle;Max_cycle;Signal;HPM_P1;HPM_P2
2021/12/19 00:03:04;;;;;;;4.72;2.17;;;;;;;-0.74;70.41;97819.44;5080585;28;20127;-47
2021/12/19 00:10:28;;;;;;;6.65;2.30;;;;;;;-0.66;70.21;97795.28;5079270;28;20472;-51
2021/12/19 00:12:55;;;;;;;3.55;2.20;;;;;;;-0.65;70.14;97789.88;5086202;28;20084;-52
2021/12/19 00:15:21;;;;;;;4.38;1.88;;;;;;;-0.63;70.08;97779.28;5074036;28;20388;-52
2021/12/19 00:17:46;;;;;;;5.90;2.30;;;;;;;-0.70;70.01;97767.53;5085368;28;20021;-48
2021/12/19 00:20:12;;;;;;;3.05;1.63;;;;;;;-0.71;70.28;97750.06;5064117;28;20119;-48
2021/12/19 00:22:38;;;;;;;6.68;2.13;;;;;;;-0.68;70.17;97747.22;5081879;28;20027;-56
2021/12/19 00:25:05;;;;;;;3.13;1.77;;;;;;;-0.70;70.27;97752.56;5072611;28;20162;-51
2021/12/19 00:27:31;;;;;;;2.95;1.77;;;;;;;-0.70;70.62;97741.25;5055669;28;20051;-52
2021/12/19 00:29:56;;;;;;;3.20;1.75;;;;;;;-0.69;70.67;97729.78;5081967;28;20445;-47
2021/12/19 00:32:22;;;;;;;4.80;1.88;;;;;;;-0.74;70.88;97712.50;5079108;28;20094;-51
2021/12/19 00:34:51;;;;;;;3.90;1.27;;;;;;;-0.63;70.19;97703.06;5074210;28;20028;-52
2021/12/19 00:37:18;;;;;;;3.00;1.77;;;;;;;-0.66;70.38;97705.91;5085409;28;20161;-50
2021/12/19 00:39:44;;;;;;;4.97;1.52;;;;;;;-0.66;70.78;97687.50;5076041;28;20016;-51
2021/12/19 00:42:10;;;;;;;2.90;1.75;;;;;;;-0.65;70.87;97686.56;5082487;28;20376;-48
2021/12/19 00:44:37;;;;;;;3.25;1.70;;;;;;;-0.66;70.87;97677.00;5083237;28;20413;-48
2021/12/19 00:47:07;;;;;;;2.75;1.70;;;;;;;-0.93;70.86;97620.16;5074093;28;20031;-48
2021/12/19 00:49:34;;;;;;;3.42;1.50;;;;;;;-0.64;71.19;97657.53;5058019;28;20485;-55
2021/12/19 00:51:59;;;;;;;2.45;1.63;;;;;;;-0.63;70.24;97655.75;5083144;28;20036;-50
2021/12/19 00:54:25;;;;;;;3.13;1.70;;;;;;;-0.62;70.10;97633.78;5081620;28;20024;-47
2021/12/19 00:56:50;;;;;;;2.38;1.58;;;;;;;-0.62;70.52;97618.03;5075547;28;20036;-52
2021/12/19 00:59:17;;;;;;;3.60;1.35;;;;;;;-0.66;70.29;97606.03;5086996;28;20028;-49
2021/12/19 01:01:44;;;;;;;2.22;1.35;;;;;;;-0.92;70.89;97569.31;5075045;28;20471;-50
2021/12/19 01:04:13;;;;;;;2.80;1.58;;;;;;;-0.64;70.42;97598.88;5081633;28;20024;-50
2021/12/19 01:06:40;;;;;;;2.50;1.50;;;;;;;-0.67;71.16;97578.09;5081736;28;20028;-55
2021/12/19 01:09:06;;;;;;;3.58;1.80;;;;;;;-0.67;71.13;97578.09;5074078;28;20060;-50
2021/12/19 01:11:34;;;;;;;2.47;1.60;;;;;;;-0.63;70.57;97569.84;5086587;28;20029;-49
2021/12/19 01:13:59;;;;;;;2.33;1.50;;;;;;;-0.69;71.08;97561.59;5078243;28;20032;-48
2021/12/19 01:16:25;;;;;;;2.05;1.67;;;;;;;-0.61;70.58;97549.56;5079248;28;20035;-52
2021/12/19 01:18:51;;;;;;;1.77;1.27;;;;;;;-0.66;70.96;97533.28;5084875;28;20035;-48
2021/12/19 01:21:17;;;;;;;2.22;1.33;;;;;;;-0.62;70.38;97529.47;5074059;28;20056;-46
2021/12/19 01:23:43;;;;;;;3.30;1.60;;;;;;;-0.57;70.41;97529.16;5085024;28;20392;-52
2021/12/19 01:26:09;;;;;;;3.10;1.40;;;;;;;-0.56;70.75;97525.59;5079111;28;20032;-57
2021/12/19 01:28:34;;;;;;;2.63;1.35;;;;;;;-0.59;71.37;97510.03;5077828;28;20033;-49
2021/12/19 01:31:00;;;;;;;2.58;1.67;;;;;;;-0.60;70.82;97500.47;5086235;28;20060;-51
2021/12/19 01:33:26;;;;;;;3.53;1.40;;;;;;;-0.54;70.60;97502.66;5073742;28;20039;-52
2021/12/19 01:35:52;;;;;;;3.50;1.30;;;;;;;-0.58;70.34;97490.69;5082360;28;20070;-51
2021/12/19 01:38:18;;;;;;;4.68;1.67;;;;;;;-0.61;71.02;97481.22;5080193;28;20169;-53
2021/12/19 01:40:44;;;;;;;2.65;1.52;;;;;;;-0.77;70.71;97443.88;5075370;28;20135;-53
2021/12/19 01:43:09;;;;;;;4.15;1.38;;;;;;;-0.55;70.69;97487.00;5086748;28;20039;-49
2021/12/19 01:45:38;;;;;;;3.38;1.60;;;;;;;-0.56;70.48;97459.88;5077237;28;20024;-46
2021/12/19 01:48:07;;;;;;;4.15;1.58;;;;;;;-0.63;71.21;97442.88;5085666;28;20366;-50
2021/12/19 01:50:33;;;;;;;2.13;1.35;;;;;;;-0.48;70.75;97457.53;5078015;28;20430;-49
2021/12/19 01:53:04;;;;;;;3.00;1.50;;;;;;;-0.44;70.65;97437.94;5077881;28;20028;-50
2021/12/19 01:55:30;;;;;;;3.10;1.60;;;;;;;-0.50;70.79;97427.03;5090064;28;20041;-49
2021/12/19 01:57:55;;;;;;;2.20;1.48;;;;;;;-0.49;70.84;97412.94;5080818;28;20111;-48
2021/12/19 02:00:43;;;;;;;5.47;1.83;;;;;;;-0.41;70.99;97405.31;5083079;28;20119;-45
2021/12/19 02:03:10;;;;;;;3.58;1.70;;;;;;;-0.43;70.18;97396.72;5077079;28;20103;-50
2021/12/19 02:05:37;;;;;;;3.63;1.52;;;;;;;-0.44;70.77;97390.63;5078316;28;20042;-50
2021/12/19 02:08:03;;;;;;;2.60;1.33;;;;;;;-0.48;70.65;97368.16;5085765;28;20388;-48
2021/12/19 02:10:32;;;;;;;3.13;1.63;;;;;;;-0.68;70.65;97324.97;5084712;28;20036;-51
2021/12/19 02:12:59;;;;;;;2.63;1.60;;;;;;;-0.41;71.16;97363.25;5076457;28;20027;-51
2021/12/19 02:15:28;;;;;;;2.10;1.10;;;;;;;-0.37;71.05;97345.47;5090215;28;20060;-52
2021/12/19 02:17:57;;;;;;;4.18;1.58;;;;;;;-0.33;70.70;97341.66;5078461;28;20053;-51
2021/12/19 02:20:23;;;;;;;2.78;1.40;;;;;;;-0.36;70.72;97328.75;5082396;28;20025;-51
2021/12/19 02:22:49;;;;;;;2.40;1.27;;;;;;;-0.36;70.59;97319.06;5087417;28;20491;-48
2021/12/19 02:25:15;;;;;;;3.47;1.30;;;;;;;-0.35;70.68;97312.00;5076183;28;20025;-46
2021/12/19 02:27:41;;;;;;;3.22;1.42;;;;;;;-0.36;70.65;97310.34;5087606;28;20028;-50
2021/12/19 02:30:08;;;;;;;1.80;1.17;;;;;;;-0.45;70.67;97283.81;5082107;28;20036;-45
2021/12/19 02:32:36;;;;;;;2.50;1.50;;;;;;;-0.37;70.50;97292.88;5080389;28;20063;-50
2021/12/19 02:35:07;;;;;;;1.60;1.02;;;;;;;-0.37;71.05;97290.25;5088855;28;20400;-46
2021/12/19 02:48:13;;;;;;;2.17;1.40;;;;;;;-0.39;70.41;97245.66;5084338;28;20404;-49
2021/12/19 02:50:48;;;;;;;1.95;1.13;;;;;;;-0.37;70.80;97237.69;5085232;28;20032;-49
2021/12/19 02:53:17;;;;;;;1.55;1.02;;;;;;;-0.46;70.66;97215.56;5075320;28;20032;-50
2021/12/19 02:55:43;;;;;;;1.48;0.93;;;;;;;-0.40;70.30;97222.16;5087332;28;20051;-53
2021/12/19 02:58:10;;;;;;;3.03;1.05;;;;;;;-0.46;70.66;97202.44;5081918;28;20107;-54
2021/12/19 03:00:36;;;;;;;1.73;1.10;;;;;;;-0.37;70.18;97206.94;5079646;28;20476;-47
2021/12/19 03:03:01;;;;;;;2.08;1.30;;;;;;;-0.36;70.01;97203.41;5088635;28;20197;-45
2021/12/19 03:05:30;;;;;;;1.40;0.88;;;;;;;-0.38;70.33;97186.06;5075707;28;20020;-46
2021/12/19 03:07:56;;;;;;;1.38;0.90;;;;;;;-0.45;70.26;97181.28;5085669;28;20468;-46
2021/12/19 03:18:26;;;;;;;1.73;1.00;;;;;;;-0.35;70.71;97164.78;5083386;28;20028;-50
2021/12/19 03:20:52;;;;;;;1.40;1.00;;;;;;;-0.63;70.48;97119.66;5076749;28;20035;-51
2021/12/19 03:23:17;;;;;;;1.30;1.05;;;;;;;-0.34;70.58;97151.53;5088714;28;20036;-46
2021/12/19 03:25:43;;;;;;;1.60;1.10;;;;;;;-0.32;70.74;97149.59;5077665;28;20024;-47
2021/12/19 03:28:11;;;;;;;2.00;1.27;;;;;;;-0.31;70.44;97153.91;5083274;28;20063;-57
2021/12/19 03:30:38;;;;;;;4.18;1.42;;;;;;;-0.28;70.77;97150.19;5084705;28;20032;-47
2021/12/19 03:33:04;;;;;;;4.53;1.50;;;;;;;-0.26;70.75;97140.38;5075182;28;20055;-53
2021/12/19 03:35:30;;;;;;;2.22;1.27;;;;;;;-0.22;70.45;97126.06;5058591;28;20506;-51
2021/12/19 03:38:03;;;;;;;1.40;1.30;;;;;;;-0.16;70.74;97120.28;5084614;28;20028;-48
2021/12/19 03:40:40;;;;;;;1.50;1.08;;;;;;;-0.17;70.18;97112.50;5082720;28;20112;-46
2021/12/19 03:43:17;;;;;;;2.33;1.20;;;;;;;-0.16;70.36;97099.25;5074821;28;20078;-48
2021/12/19 03:45:45;;;;;;;1.98;1.20;;;;;;;-0.12;70.01;97104.25;5084954;28;20027;-49
2021/12/19 03:48:12;;;;;;;1.55;1.15;;;;;;;-0.33;70.53;97055.06;5079448;28;20036;-50
2021/12/19 03:50:44;;;;;;;3.45;1.50;;;;;;;-0.04;70.20;97097.44;5078456;28;20039;-49
2021/12/19 03:53:13;;;;;;;2.00;1.20;;;;;;;-0.08;70.42;97074.97;5087776;28;20042;-51
2021/12/19 03:55:39;;;;;;;1.20;1.10;;;;;;;-0.01;70.15;97068.25;5076391;28;20024;-52
2021/12/19 03:58:05;;;;;;;2.03;1.42;;;;;;;-0.05;70.20;97063.34;5082949;28;20040;-52
2021/12/19 04:00:32;;;;;;;1.50;1.05;;;;;;;-0.07;69.89;97057.38;5082862;28;20032;-51
2021/12/19 04:03:00;;;;;;;1.50;1.20;;;;;;;-0.04;70.59;97043.97;5075830;28;20029;-51
2021/12/19 04:05:27;;;;;;;1.98;1.40;;;;;;;0.00;70.69;97048.03;5087592;28;20446;-49
2021/12/19 04:07:54;;;;;;;2.65;1.27;;;;;;;0.02;70.48;97047.91;5076780;28;20035;-47
2021/12/19 04:10:21;;;;;;;1.63;1.20;;;;;;;0.03;70.34;97029.38;5080728;28;20028;-55
2021/12/19 04:12:48;;;;;;;2.80;1.40;;;;;;;0.03;70.70;97023.25;5085028;28;20396;-50
2021/12/19 04:15:13;;;;;;;1.80;1.38;;;;;;;-0.01;70.21;97014.78;5072659;28;20376;-49
2021/12/19 04:17:39;;;;;;;4.20;2.22;;;;;;;-0.01;70.67;97015.63;5086942;28;20111;-48
2021/12/19 04:20:05;;;;;;;2.63;1.58;;;;;;;-0.06;70.74;96999.41;5079549;28;20040;-47
2021/12/19 04:22:31;;;;;;;1.70;1.40;;;;;;;0.05;70.57;97005.56;5078987;28;20036;-46
2021/12/19 04:24:57;;;;;;;2.17;1.27;;;;;;;0.07;70.59;97001.84;5086112;28;20024;-50
2021/12/19 04:27:23;;;;;;;1.75;1.40;;;;;;;0.09;70.34;96994.66;5074147;28;20523;-51
2021/12/19 04:29:50;;;;;;;2.85;1.30;;;;;;;0.12;70.40;96993.56;5084283;28;20024;-49
2021/12/19 04:32:17;;;;;;;2.75;1.70;;;;;;;0.16;70.17;96986.25;5080819;28;20055;-53
2021/12/19 04:34:44;;;;;;;2.95;1.50;;;;;;;0.19;70.43;96988.63;5077313;28;20112;-49
2021/12/19 04:40:21;;;;;;;3.78;1.75;;;;;;;0.23;70.42;96976.88;5083593;28;20040;-50
2021/12/19 05:15:23;;;;;;;2.83;1.77;;;;;;;0.46;69.92;96910.91;5086787;28;20065;-54
2021/12/19 05:17:49;;;;;;;3.40;2.00;;;;;;;0.51;69.78;96895.56;5076238;28;20473;-47
2021/12/19 05:20:19;;;;;;;2.90;1.73;;;;;;;0.47;69.48;96894.16;5084463;28;20124;-50
2021/12/19 05:22:48;;;;;;;2.53;2.00;;;;;;;0.50;69.77;96892.09;5080578;28;20107;-46
2021/12/19 05:25:17;;;;;;;3.28;1.60;;;;;;;0.51;69.67;96891.13;5091051;28;20032;-50
2021/12/19 05:27:48;;;;;;;3.38;1.58;;;;;;;0.47;69.84;96880.97;5078154;28;20031;-49
2021/12/19 05:30:15;;;;;;;3.47;1.77;;;;;;;0.55;69.97;96881.97;5084591;28;20487;-50
2021/12/19 05:32:43;;;;;;;2.20;1.88;;;;;;;0.57;69.35;96887.13;5087982;28;20044;-48
2021/12/19 05:35:11;;;;;;;4.63;1.95;;;;;;;0.58;69.48;96875.63;5077313;28;20138;-47
2021/12/19 05:45:50;;;;;;;5.15;2.03;;;;;;;0.62;69.35;96865.69;5086291;28;20253;-49
2021/12/19 05:48:15;;;;;;;4.10;2.47;;;;;;;0.55;69.57;96860.94;5083875;28;20462;-54
2021/12/19 05:50:42;;;;;;;4.20;1.98;;;;;;;0.55;69.63;96855.66;5080484;28;20036;-55
2021/12/19 05:53:10;;;;;;;4.53;2.38;;;;;;;0.58;69.55;96849.31;5090335;28;20035;-52
2021/12/19 05:55:35;;;;;;;4.68;2.70;;;;;;;0.56;69.69;96849.44;5077930;28;20068;-51
2021/12/19 05:58:01;;;;;;;4.78;2.70;;;;;;;0.60;69.92;96849.16;5085979;28;20024;-53
2021/12/19 06:00:27;;;;;;;4.72;3.05;;;;;;;0.55;69.50;96824.06;5072728;28;20025;-53
2021/12/19 06:02:53;;;;;;;3.83;2.70;;;;;;;0.62;69.57;96837.53;5073239;28;20074;-48
2021/12/19 06:05:18;;;;;;;6.22;3.22;;;;;;;0.62;69.56;96827.00;5090257;28;20035;-53
2021/12/19 06:07:44;;;;;;;5.65;2.83;;;;;;;0.65;69.86;96832.00;5078774;28;20053;-50
2021/12/19 06:10:10;;;;;;;7.30;3.67;;;;;;;0.66;69.05;96823.13;5084326;28;20029;-55
2021/12/19 06:12:37;;;;;;;7.05;3.65;;;;;;;0.67;69.43;96821.34;5086291;28;20050;-51
2021/12/19 06:15:05;;;;;;;5.15;3.17;;;;;;;0.67;69.97;96816.06;5076745;28;20451;-48
2021/12/19 06:17:30;;;;;;;7.38;3.85;;;;;;;0.67;69.90;96801.09;5060147;28;20020;-51
2021/12/19 06:19:56;;;;;;;5.25;3.55;;;;;;;0.71;69.76;96810.38;5086309;28;20035;-49
2021/12/19 06:22:21;;;;;;;5.47;3.60;;;;;;;0.73;69.66;96807.63;5084031;28;20027;-53
2021/12/19 06:24:47;;;;;;;7.68;3.65;;;;;;;0.68;69.49;96794.84;5079201;28;20120;-52
2021/12/19 06:27:13;;;;;;;5.30;3.67;;;;;;;0.75;69.47;96796.97;5089488;28;20396;-50
2021/12/19 06:29:38;;;;;;;5.93;3.63;;;;;;;0.74;69.51;96785.59;5078420;28;20051;-53
2021/12/19 06:32:04;;;;;;;5.97;3.70;;;;;;;0.77;69.45;96784.47;5081878;28;20044;-53
2021/12/19 06:34:29;;;;;;;7.15;3.42;;;;;;;0.87;69.41;96797.66;5080648;28;20131;-53
2021/12/19 06:36:55;;;;;;;4.65;3.58;;;;;;;0.61;69.33;96743.72;5076696;28;20872;-51
2021/12/19 06:39:22;;;;;;;7.90;3.88;;;;;;;0.88;69.41;96788.78;5077378;28;20044;-48
2021/12/19 06:41:48;;;;;;;8.68;3.90;;;;;;;0.92;69.89;96774.38;5071292;28;20433;-46
2021/12/19 06:44:14;;;;;;;6.10;4.13;;;;;;;0.95;69.12;96777.53;5074427;28;20119;-50
2021/12/19 06:46:40;;;;;;;5.97;3.60;;;;;;;0.71;69.59;96728.75;5074423;28;20178;-52
2021/12/19 06:49:06;;;;;;;7.57;3.33;;;;;;;0.96;69.18;96758.13;5074713;28;20540;-50
2021/12/19 06:51:32;;;;;;;7.22;3.22;;;;;;;1.07;68.83;96772.16;5076765;28;20472;-54
2021/12/19 06:53:58;;;;;;;6.70;2.80;;;;;;;1.07;68.84;96769.50;5074513;28;20055;-52
2021/12/19 06:56:24;;;;;;;6.20;3.55;;;;;;;1.08;69.10;96766.72;5083247;28;20052;-49
2021/12/19 06:58:49;;;;;;;9.13;3.47;;;;;;;1.09;68.93;96749.13;5078730;28;20021;-47
2021/12/19 07:01:15;;;;;;;5.80;2.95;;;;;;;1.12;68.86;96760.22;5074092;28;20506;-50
2021/12/19 07:03:40;;;;;;;4.10;2.80;;;;;;;1.14;69.21;96749.53;5072832;28;20039;-49
2021/12/19 07:06:06;;;;;;;7.07;2.72;;;;;;;1.21;69.16;96745.38;5072886;28;20043;-56
2021/12/19 07:08:32;;;;;;;4.97;2.63;;;;;;;1.21;69.13;96742.75;5072220;28;20021;-50
2021/12/19 07:10:57;;;;;;;5.45;2.60;;;;;;;1.24;69.02;96739.81;5072608;28;20040;-51
2021/12/19 07:13:23;;;;;;;5.97;2.72;;;;;;;1.26;69.26;96748.41;5088993;28;20365;-51
2021/12/19 07:15:50;;;;;;;5.75;2.60;;;;;;;1.30;69.14;96743.66;5078298;28;20027;-51
2021/12/19 07:18:15;;;;;;;10.05;2.85;;;;;;;1.34;68.83;96744.22;5082541;28;20057;-49
2021/12/19 07:20:43;;;;;;;5.35;3.05;;;;;;;1.42;69.14;96745.19;5085171;28;20115;-51
2021/12/19 07:23:17;;;;;;;11.32;3.10;;;;;;;1.50;69.07;96736.56;5075602;28;20028;-52
2021/12/19 07:25:43;;;;;;;5.55;2.65;;;;;;;1.52;69.25;96737.25;5087226;28;20029;-48
2021/12/19 07:28:09;;;;;;;4.22;2.38;;;;;;;1.57;69.30;96724.47;5081226;28;20028;-52
2021/12/19 07:30:37;;;;;;;5.15;2.63;;;;;;;1.63;69.09;96722.22;5079430;28;20131;-52
2021/12/19 07:33:04;;;;;;;6.15;2.83;;;;;;;1.62;69.08;96715.28;5087241;28;20450;-49
2021/12/19 07:35:34;;;;;;;4.63;2.33;;;;;;;1.67;69.05;96708.59;5058911;28;20042;-55
2021/12/19 07:37:59;;;;;;;6.15;2.35;;;;;;;1.68;69.12;96717.34;5084216;28;20155;-51
2021/12/19 07:40:28;;;;;;;5.82;2.53;;;;;;;1.67;69.08;96710.41;5082944;28;20512;-54
2021/12/19 07:42:58;;;;;;;6.40;2.80;;;;;;;1.70;69.25;96708.31;5076994;28;20024;-59
2021/12/19 07:45:24;;;;;;;3.78;2.20;;;;;;;1.71;68.95;96709.97;5088429;28;20032;-61
2021/12/19 07:47:49;;;;;;;4.75;2.38;;;;;;;1.75;69.60;96707.03;5075178;28;20126;-56
2021/12/19 07:50:15;;;;;;;5.38;2.75;;;;;;;1.73;68.94;96701.94;5080432;28;20104;-51
2021/12/19 07:52:41;;;;;;;4.97;2.70;;;;;;;1.74;69.44;96694.81;5083136;28;20032;-52
2021/12/19 07:55:07;;;;;;;4.20;2.72;;;;;;;1.75;69.24;96697.34;5071763;28;20024;-51
2021/12/19 07:57:34;;;;;;;5.15;2.50;;;;;;;1.80;69.65;96688.97;5086295;28;20027;-50
2021/12/19 07:59:59;;;;;;;4.28;2.08;;;;;;;1.81;69.09;96686.19;5077346;28;20044;-54
2021/12/19 08:02:25;;;;;;;3.92;2.40;;;;;;;1.56;68.99;96632.31;5078014;28;20064;-55
2021/12/19 08:04:50;;;;;;;3.28;2.15;;;;;;;1.89;69.00;96674.06;5084023;28;20026;-55
2021/12/19 08:07:17;;;;;;;2.65;1.90;;;;;;;1.92;68.61;96674.63;5072552;28;20032;-50
2021/12/19 08:10:14;;;;;;;3.20;1.77;;;;;;;1.91;68.67;96678.22;5083756;28;20051;-49
2021/12/19 08:12:41;;;;;;;2.33;1.58;;;;;;;1.94;68.63;96666.56;5082478;28;20058;-57
2021/12/19 08:15:08;;;;;;;3.88;1.77;;;;;;;1.94;68.72;96667.38;5072778;28;20040;-52
2021/12/19 08:17:34;;;;;;;2.63;1.70;;;;;;;1.93;68.83;96670.16;5085026;28;20103;-55
2021/12/19 08:20:02;;;;;;;2.95;1.70;;;;;;;1.98;68.39;96665.28;5076351;28;20118;-53
2021/12/19 08:22:30;;;;;;;6.10;2.00;;;;;;;2.01;68.31;96657.88;5077206;28;20059;-53
2021/12/19 08:24:57;;;;;;;3.85;1.80;;;;;;;1.75;68.37;96609.44;5084762;28;20028;-52
2021/12/19 08:27:23;;;;;;;1.73;1.23;;;;;;;2.06;68.08;96648.72;5072165;28;20111;-57
2021/12/19 08:29:49;;;;;;;3.97;1.52;;;;;;;2.08;68.44;96652.84;5081678;28;20112;-57
2021/12/19 08:32:15;;;;;;;3.05;1.70;;;;;;;2.06;68.58;96636.34;5077062;28;20135;-56
2021/12/19 08:34:40;;;;;;;5.68;1.80;;;;;;;2.22;68.35;96648.06;5075804;28;20036;-55
2021/12/19 08:37:07;;;;;;;4.07;1.83;;;;;;;2.26;67.94;96646.75;5085617;28;20039;-51
2021/12/19 08:39:33;;;;;;;4.90;1.80;;;;;;;2.26;68.42;96644.13;5071943;28;20030;-57
2021/12/19 08:42:00;;;;;;;4.13;1.67;;;;;;;2.05;67.74;96595.09;5081479;28;20025;-54
2021/12/19 08:44:26;;;;;;;3.75;1.90;;;;;;;2.38;66.88;96627.06;5079478;28;20053;-52
2021/12/19 08:46:52;;;;;;;3.33;1.70;;;;;;;2.44;67.09;96630.91;5072884;28;20028;-56
2021/12/19 08:49:17;;;;;;;6.63;2.28;;;;;;;2.48;66.82;96636.75;5080211;28;20021;-64
2021/12/19 08:51:43;;;;;;;6.28;2.25;;;;;;;2.53;67.21;96637.09;5083838;28;20028;-52
2021/12/19 08:54:09;;;;;;;5.38;1.83;;;;;;;2.53;67.59;96631.81;5078921;28;20065;-57
2021/12/19 08:56:35;;;;;;;5.70;1.90;;;;;;;2.55;67.13;96643.06;5077551;28;20459;-65
2021/12/19 08:59:01;;;;;;;4.93;2.10;;;;;;;2.50;66.74;96630.31;5084927;28;20035;-51
2021/12/19 09:01:27;;;;;;;5.70;2.10;;;;;;;2.41;67.03;96628.59;5042261;28;20028;-54
2021/12/19 09:03:53;;;;;;;3.88;1.73;;;;;;;2.37;67.15;96629.88;5076120;28;20028;-50
2021/12/19 09:06:19;;;;;;;4.22;2.17;;;;;;;2.36;67.64;96625.56;5077493;28;20025;-52
2021/12/19 09:08:44;;;;;;;6.40;1.80;;;;;;;2.37;67.75;96617.50;5081285;28;20028;-53
2021/12/19 09:11:10;;;;;;;5.47;2.08;;;;;;;2.35;67.22;96605.44;5071303;28;20039;-58
2021/12/19 09:13:36;;;;;;;7.10;2.10;;;;;;;2.49;67.60;96609.34;5084173;28;20020;-55
2021/12/19 09:16:01;;;;;;;6.28;1.63;;;;;;;2.51;67.32;96605.56;5077373;28;20086;-53
2021/12/19 09:18:28;;;;;;;3.95;1.88;;;;;;;2.54;67.04;96604.44;5077274;28;20024;-54
2021/12/19 09:20:54;;;;;;;7.07;2.25;;;;;;;2.55;67.20;96604.28;5059453;28;20048;-55
2021/12/19 09:23:20;;;;;;;5.93;2.10;;;;;;;2.56;67.28;96599.81;5072208;28;20040;-48
2021/12/19 09:25:46;;;;;;;5.47;2.45;;;;;;;2.57;67.42;96604.13;5083424;28;20090;-49
2021/12/19 09:28:12;;;;;;;6.65;2.28;;;;;;;2.58;66.78;96600.50;5078904;28;20107;-47
2021/12/19 09:30:38;;;;;;;6.50;1.95;;;;;;;2.62;66.69;96604.50;5076757;28;20042;-52
2021/12/19 09:33:04;;;;;;;2.30;1.73;;;;;;;2.67;67.19;96594.31;5086199;28;20044;-51
2021/12/19 09:35:30;;;;;;;4.10;2.33;;;;;;;2.66;67.02;96587.38;5069682;28;20028;-51
2021/12/19 09:37:56;;;;;;;8.45;2.00;;;;;;;2.64;66.98;96584.03;5071279;28;20040;-50
2021/12/19 09:40:31;;;;;;;5.13;2.08;;;;;;;2.55;67.10;96569.13;5078704;28;20541;-51
2021/12/19 09:43:01;;;;;;;5.57;2.58;;;;;;;2.60;67.06;96587.97;5074205;28;20067;-52
2021/12/19 09:45:27;;;;;;;4.25;2.20;;;;;;;2.54;66.76;96592.06;5085527;28;20358;-52
2021/12/19 09:47:53;;;;;;;5.47;2.42;;;;;;;2.47;67.37;96588.38;5070485;28;20029;-52
2021/12/19 09:50:19;;;;;;;4.22;2.05;;;;;;;2.27;67.50;96566.59;5069630;28;20066;-51
2021/12/19 09:52:46;;;;;;;6.68;2.22;;;;;;;2.34;68.02;96582.66;5076044;28;20449;-54
2021/12/19 09:55:17;;;;;;;4.32;2.28;;;;;;;2.33;67.68;96575.72;5080837;28;20024;-52
2021/12/19 09:57:43;;;;;;;7.68;2.45;;;;;;;2.27;67.98;96563.94;5084269;28;20034;-53
2021/12/19 10:00:09;;;;;;;4.20;2.70;;;;;;;2.33;68.42;96571.25;5071223;28;20028;-56
2021/12/19 10:02:34;;;;;;;6.20;2.67;;;;;;;2.39;68.12;96569.81;5081675;28;20028;-47
2021/12/19 10:05:14;;;;;;;8.20;2.65;;;;;;;2.50;68.15;96566.13;5073353;28;20090;-48
2021/12/19 10:07:52;;;;;;;6.32;2.10;;;;;;;2.59;68.11;96565.19;5061725;28;20035;-50
2021/12/19 10:10:26;;;;;;;4.50;1.92;;;;;;;2.67;67.46;96559.97;5082750;28;20043;-50
2021/12/19 10:12:57;;;;;;;5.60;2.25;;;;;;;2.84;67.28;96557.41;5087676;28;20361;-52
2021/12/19 10:15:29;;;;;;;6.70;2.33;;;;;;;3.01;66.40;96545.97;5069296;28;20025;-47
2021/12/19 10:18:12;;;;;;;4.43;2.15;;;;;;;3.16;66.50;96542.75;5085959;28;20032;-50
2021/12/19 10:20:49;;;;;;;4.30;2.42;;;;;;;3.24;66.44;96536.63;5086318;28;20060;-48
2021/12/19 10:23:23;;;;;;;5.63;2.42;;;;;;;3.29;66.58;96537.00;5075821;28;20086;-51
2021/12/19 10:25:58;;;;;;;3.67;2.15;;;;;;;3.46;65.68;96537.88;5072737;28;20023;-56
2021/12/19 10:28:24;;;;;;;7.07;2.60;;;;;;;3.47;64.65;96534.25;5083589;28;20414;-61
2021/12/19 10:30:50;;;;;;;5.20;2.13;;;;;;;3.40;64.42;96531.41;5075298;28;20357;-50
2021/12/19 10:33:23;;;;;;;7.68;2.28;;;;;;;3.38;65.33;96533.41;5087343;28;20047;-51
2021/12/19 10:36:09;;;;;;;6.53;2.50;;;;;;;3.28;65.35;96528.22;5075708;28;20044;-52
2021/12/19 10:38:41;;;;;;;7.13;2.30;;;;;;;3.27;64.87;96525.78;5075626;28;20033;-52
2021/12/19 10:41:14;;;;;;;3.75;2.10;;;;;;;3.16;66.06;96525.03;5087798;28;20020;-52
2021/12/19 10:43:56;;;;;;;6.30;2.42;;;;;;;3.10;66.48;96527.50;5076113;28;20050;-53
2021/12/19 10:46:36;;;;;;;5.93;2.58;;;;;;;3.05;66.77;96525.34;5082187;28;20086;-52
2021/12/19 10:49:03;;;;;;;4.50;2.08;;;;;;;2.94;67.23;96521.16;5089383;28;20111;-52
2021/12/19 10:51:32;;;;;;;3.20;1.90;;;;;;;2.85;66.97;96506.22;5076151;28;20081;-50
2021/12/19 10:54:01;;;;;;;4.22;2.42;;;;;;;2.86;66.61;96505.25;5085055;28;20492;-55
2021/12/19 10:56:45;;;;;;;5.03;2.13;;;;;;;2.92;67.26;96509.91;5083867;28;20032;-53
2021/12/19 10:59:16;;;;;;;3.72;2.20;;;;;;;2.82;67.28;96501.25;5076031;28;20072;-55
2021/12/19 11:01:47;;;;;;;5.35;2.45;;;;;;;2.57;67.60;96470.28;5087743;28;20059;-51
2021/12/19 11:04:17;;;;;;;5.13;2.50;;;;;;;2.83;67.47;96524.06;5081598;28;20038;-54
2021/12/19 11:06:45;;;;;;;7.18;2.47;;;;;;;2.54;67.89;96467.09;5078615;28;20032;-52
2021/12/19 11:09:16;;;;;;;6.47;3.08;;;;;;;2.85;67.92;96509.72;5089198;28;20039;-53
2021/12/19 11:11:49;;;;;;;6.78;2.80;;;;;;;2.78;67.77;96506.06;5077182;28;20068;-51
2021/12/19 11:14:32;;;;;;;9.02;3.15;;;;;;;2.86;68.48;96507.88;5081119;28;20048;-54
2021/12/19 11:17:07;;;;;;;12.68;4.72;;;;;;;2.81;67.96;96510.19;5074607;28;20132;-50
2021/12/19 11:19:33;;;;;;;5.68;2.80;;;;;;;2.47;68.55;96468.72;5072958;28;20024;-52
2021/12/19 11:21:59;;;;;;;4.70;2.67;;;;;;;2.63;68.24;96505.78;5079510;28;20085;-50
2021/12/19 11:24:25;;;;;;;11.00;3.30;;;;;;;2.56;69.24;96510.88;5080501;28;20078;-52
2021/12/19 11:26:54;;;;;;;4.20;2.63;;;;;;;2.48;70.02;96499.44;5086031;28;20031;-50
2021/12/19 11:29:21;;;;;;;5.57;2.75;;;;;;;2.48;69.83;96507.34;5073834;28;20039;-50
2021/12/19 11:31:50;;;;;;;6.72;3.00;;;;;;;2.46;69.80;96506.69;5071677;28;20043;-48
2021/12/19 11:34:20;;;;;;;6.28;2.58;;;;;;;2.45;70.41;96505.84;5075020;28;20093;-49
2021/12/19 11:36:55;;;;;;;6.15;3.00;;;;;;;2.43;70.19;96505.16;5085550;28;20036;-50
2021/12/19 11:39:26;;;;;;;9.82;3.10;;;;;;;2.40;70.59;96502.84;5074226;28;20080;-53
2021/12/19 11:42:05;;;;;;;6.05;2.97;;;;;;;2.43;71.08;96500.72;5084241;28;20116;-50
2021/12/19 11:44:49;;;;;;;7.13;2.78;;;;;;;2.38;70.55;96505.63;5081919;28;20089;-50
2021/12/19 11:47:44;;;;;;;5.45;2.75;;;;;;;2.46;71.08;96498.75;5075381;28;20318;-49
2021/12/19 11:50:32;;;;;;;6.60;2.80;;;;;;;2.43;70.65;96507.81;5069258;28;20038;-51
2021/12/19 11:52:59;;;;;;;7.50;2.88;;;;;;;2.35;70.90;96495.38;5074635;28;20029;-50
2021/12/19 11:55:28;;;;;;;7.30;2.72;;;;;;;2.29;71.30;96491.56;5085894;28;20073;-47
2021/12/19 11:58:09;;;;;;;10.52;3.15;;;;;;;2.32;71.76;96497.50;5076862;28;20028;-47
2021/12/19 12:00:38;;;;;;;7.05;2.60;;;;;;;2.22;71.51;96498.41;5074378;28;20028;-52
2021/12/19 12:03:13;;;;;;;6.25;2.67;;;;;;;2.21;72.21;96493.31;5084230;28;20122;-52
2021/12/19 12:05:47;;;;;;;10.83;3.37;;;;;;;2.15;72.43;96495.53;5058889;28;20234;-52
2021/12/19 12:08:23;;;;;;;6.57;2.67;;;;;;;2.15;72.34;96503.47;5079870;28;20253;-47
2021/12/19 12:10:49;;;;;;;7.50;2.92;;;;;;;2.07;72.36;96498.13;5083255;28;20043;-45
2021/12/19 12:13:30;;;;;;;7.50;2.50;;;;;;;2.08;72.69;96496.34;5070620;28;20025;-47
2021/12/19 12:16:05;;;;;;;5.57;2.58;;;;;;;1.93;72.78;96483.69;5082385;28;20052;-50
2021/12/19 12:18:39;;;;;;;5.15;2.35;;;;;;;2.03;72.73;96490.66;5077241;28;20028;-51
2021/12/19 12:21:27;;;;;;;7.03;2.75;;;;;;;2.06;72.57;96493.03;5087417;28;20032;-53
2021/12/19 12:23:57;;;;;;;8.75;3.08;;;;;;;1.99;73.27;96488.34;5077426;28;20432;-52
2021/12/19 12:26:48;;;;;;;6.93;2.60;;;;;;;2.04;72.46;96490.53;5080101;28;20032;-50
2021/12/19 12:29:13;;;;;;;7.90;2.45;;;;;;;1.86;72.24;96485.28;5086279;28;20032;-48
2021/12/19 12:31:42;;;;;;;5.10;2.40;;;;;;;1.81;72.96;96480.44;5075534;28;20059;-49
2021/12/19 12:34:12;;;;;;;7.40;2.38;;;;;;;1.80;73.81;96491.13;5082699;28;20039;-52
2021/12/19 12:36:39;;;;;;;6.07;2.30;;;;;;;1.78;73.29;96493.09;5083973;28;20353;-54
2021/12/19 12:39:10;;;;;;;9.32;2.67;;;;;;;1.77;73.96;96489.63;5074003;28;20064;-50
2021/12/19 12:44:11;;;;;;;5.80;2.85;;;;;;;1.82;73.89;96495.28;5082776;28;20039;-51
2021/12/19 12:46:37;;;;;;;11.55;2.63;;;;;;;1.72;73.89;96473.44;5065579;28;20063;-50
2021/12/19 12:49:06;;;;;;;8.90;2.80;;;;;;;1.80;73.77;96480.56;5074239;28;20059;-50
2021/12/19 12:51:50;;;;;;;6.93;2.03;;;;;;;1.85;74.23;96492.34;5057547;28;20483;-50
2021/12/19 12:54:18;;;;;;;5.30;2.20;;;;;;;1.77;73.85;96489.63;5081074;28;20492;-48
2021/12/19 12:56:51;;;;;;;5.55;2.15;;;;;;;1.80;74.12;96491.13;5084259;28;20063;-49